Time,TemperatureF,DewpointF,PressureIn,WindDirection,WindDirectionDegrees,WindSpeedMPH,WindSpeedGustMPH,Humidity,HourlyPrecipIn,Conditions,Clouds,dailyrainin,SoftwareType,DateUTC
2013-07-20 00:02:00,72.0,63.0,29.88,NW,307,0.0,1.0,74,0.00,,,0.00,,2013-07-20 05:02:00,
2013-07-20 00:12:00,71.0,63.0,29.88,NW,307,0.0,1.0,75,0.00,,,0.00,,2013-07-20 05:12:00,
2013-07-20 00:32:00,70.0,62.0,29.88,NW,307,0.0,0.0,77,0.00,,,0.00,,2013-07-20 05:32:00,
2013-07-20 01:01:00,69.0,62.0,29.89,NW,307,0.0,0.0,78,0.00,,,0.00,,2013-07-20 06:01:00,
2013-07-20 01:11:00,69.0,62.0,29.89,NW,307,0.0,0.0,79,0.00,,,0.00,,2013-07-20 06:11:00,
2013-07-20 01:32:00,68.0,62.0,29.89,NW,307,0.0,2.0,81,0.00,,,0.00,,2013-07-20 06:32:00,
2013-07-20 01:43:00,67.0,61.0,29.89,NW,307,0.0,3.0,81,0.00,,,0.00,,2013-07-20 06:43:00,
2013-07-20 02:01:00,66.0,61.0,29.89,NW,307,0.0,1.0,84,0.00,,,0.00,,2013-07-20 07:01:00,
2013-07-20 02:12:00,66.0,61.0,29.89,NW,307,0.0,1.0,84,0.00,,,0.00,,2013-07-20 07:12:00,
2013-07-20 02:33:00,66.0,61.0,29.89,NW,307,0.0,0.0,84,0.00,,,0.00,,2013-07-20 07:33:00,
2013-07-20 02:44:00,66.0,61.0,29.89,NW,307,0.0,0.0,84,0.00,,,0.00,,2013-07-20 07:44:00,
2013-07-20 03:01:00,65.0,60.0,29.88,NW,307,0.0,0.0,85,0.00,,,0.00,,2013-07-20 08:01:00,
2013-07-20 03:11:00,65.0,60.0,29.88,NW,307,0.0,0.0,85,0.00,,,0.00,,2013-07-20 08:11:00,
2013-07-20 03:22:00,65.0,60.0,29.89,NW,307,0.0,0.0,84,0.00,,,0.00,,2013-07-20 08:22:00,
2013-07-20 03:32:00,65.0,60.0,29.89,NW,307,0.0,0.0,84,0.00,,,0.00,,2013-07-20 08:32:00,
2013-07-20 03:44:00,65.0,60.0,29.88,NW,307,0.0,0.0,84,0.00,,,0.00,,2013-07-20 08:44:00,
2013-07-20 04:02:00,65.0,60.0,29.88,NW,307,0.0,1.0,83,0.00,,,0.00,,2013-07-20 09:02:00,
2013-07-20 04:11:00,65.0,60.0,29.89,NW,307,0.0,0.0,84,0.00,,,0.00,,2013-07-20 09:11:00,
2013-07-20 04:33:00,63.0,59.0,29.89,NW,307,1.0,2.0,86,0.00,,,0.00,,2013-07-20 09:33:00,
2013-07-20 04:43:00,63.0,59.0,29.89,NW,307,0.0,1.0,87,0.00,,,0.00,,2013-07-20 09:43:00,
2013-07-20 04:53:00,63.0,59.0,29.89,NW,307,1.0,1.0,87,0.00,,,0.00,,2013-07-20 09:53:00,
2013-07-20 05:01:00,62.0,58.0,29.89,NW,307,0.0,2.0,87,0.00,,,0.00,,2013-07-20 10:01:00,
2013-07-20 05:11:00,62.0,58.0,29.90,NW,307,0.0,2.0,88,0.00,,,0.00,,2013-07-20 10:11:00,
2013-07-20 05:32:00,62.0,58.0,29.90,NW,307,0.0,2.0,88,0.00,,,0.00,,2013-07-20 10:32:00,
2013-07-20 05:42:00,62.0,58.0,29.90,NW,307,0.0,1.0,88,0.00,,,0.00,,2013-07-20 10:42:00,
2013-07-20 05:52:00,61.0,58.0,29.91,NW,307,1.0,1.0,89,0.00,,,0.00,,2013-07-20 10:52:00,
2013-07-20 06:01:00,61.0,58.0,29.91,NW,307,0.0,2.0,89,0.00,,,0.00,,2013-07-20 11:01:00,
2013-07-20 06:11:00,61.0,58.0,29.92,NW,307,0.0,0.0,90,0.00,,,0.00,,2013-07-20 11:11:00,
2013-07-20 06:32:00,61.0,58.0,29.92,NW,307,0.0,0.0,90,0.00,,,0.00,,2013-07-20 11:32:00,
2013-07-20 06:43:00,61.0,58.0,29.92,NW,307,0.0,1.0,90,0.00,,,0.00,,2013-07-20 11:43:00,
2013-07-20 07:01:00,62.0,59.0,29.93,NW,307,0.0,1.0,90,0.00,,,0.00,,2013-07-20 12:01:00,
2013-07-20 07:11:00,62.0,59.0,29.92,NW,307,0.0,1.0,90,0.00,,,0.00,,2013-07-20 12:11:00,
2013-07-20 07:32:00,63.0,60.0,29.93,NW,307,0.0,2.0,89,0.00,,,0.00,,2013-07-20 12:32:00,
2013-07-20 07:52:00,65.0,61.0,29.94,NW,307,0.0,3.0,87,0.00,,,0.00,,2013-07-20 12:52:00,
2013-07-20 08:01:00,66.0,62.0,29.93,NW,307,0.0,3.0,86,0.00,,,0.00,,2013-07-20 13:01:00,
2013-07-20 08:11:00,66.0,62.0,29.93,NW,307,0.0,3.0,86,0.00,,,0.00,,2013-07-20 13:11:00,
2013-07-20 08:32:00,70.0,64.0,29.94,WNW,292,1.0,3.0,81,0.00,,,0.00,,2013-07-20 13:32:00,
2013-07-20 08:43:00,71.0,65.0,29.94,WNW,292,2.0,3.0,80,0.00,,,0.00,,2013-07-20 13:43:00,
2013-07-20 09:02:00,72.0,63.0,29.95,WNW,286,4.0,7.0,73,0.00,,,0.00,,2013-07-20 14:02:00,
2013-07-20 09:11:00,73.0,63.0,29.95,NNW,347,3.0,7.0,72,0.00,,,0.00,,2013-07-20 14:11:00,
2013-07-20 09:32:00,74.0,64.0,29.95,WNW,299,7.0,9.0,70,0.00,,,0.00,,2013-07-20 14:32:00,
2013-07-20 09:43:00,74.0,63.0,29.95,NNW,347,3.0,8.0,69,0.00,,,0.00,,2013-07-20 14:43:00,
2013-07-20 09:53:00,74.0,63.0,29.96,North,360,6.0,8.0,68,0.00,,,0.00,,2013-07-20 14:53:00,
2013-07-20 10:01:00,75.0,64.0,29.96,WNW,297,6.0,7.0,68,0.00,,,0.00,,2013-07-20 15:01:00,
2013-07-20 10:11:00,75.0,64.0,29.96,NNE,21,3.0,7.0,68,0.00,,,0.00,,2013-07-20 15:11:00,
2013-07-20 10:22:00,75.0,64.0,29.96,NNE,14,2.0,7.0,68,0.00,,,0.00,,2013-07-20 15:22:00,
2013-07-20 10:33:00,76.0,63.0,29.96,NW,312,6.0,7.0,65,0.00,,,0.00,,2013-07-20 15:33:00,
2013-07-20 10:44:00,76.0,64.0,29.97,North,355,3.0,7.0,67,0.00,,,0.00,,2013-07-20 15:44:00,
2013-07-20 11:01:00,77.0,64.0,29.97,WNW,286,4.0,6.0,64,0.00,,,0.00,,2013-07-20 16:01:00,
2013-07-20 11:11:00,77.0,64.0,29.97,WNW,302,5.0,6.0,64,0.00,,,0.00,,2013-07-20 16:11:00,
2013-07-20 11:43:00,78.0,65.0,29.98,NW,312,2.0,7.0,64,0.00,,,0.00,,2013-07-20 16:43:00,
2013-07-20 12:02:00,77.0,63.0,29.97,NNE,17,2.0,6.0,63,0.00,,,0.00,,2013-07-20 17:02:00,
2013-07-20 12:11:00,78.0,64.0,29.96,NNW,331,2.0,5.0,62,0.00,,,0.00,,2013-07-20 17:11:00,
2013-07-20 12:32:00,79.0,64.0,29.97,NW,319,3.0,6.0,61,0.00,,,0.00,,2013-07-20 17:32:00,
2013-07-20 12:43:00,79.0,63.0,29.96,WNW,286,4.0,7.0,59,0.00,,,0.00,,2013-07-20 17:43:00,
2013-07-20 13:01:00,79.0,64.0,29.96,North,355,0.0,5.0,61,0.00,,,0.00,,2013-07-20 18:01:00,
2013-07-20 13:11:00,80.0,64.0,29.96,WSW,238,0.0,4.0,59,0.00,,,0.00,,2013-07-20 18:11:00,
2013-07-20 13:24:00,79.0,64.0,29.96,NNW,338,4.0,4.0,60,0.00,,,0.00,,2013-07-20 18:24:00,
2013-07-20 13:45:00,79.0,64.0,29.97,North,355,3.0,6.0,60,0.00,,,0.00,,2013-07-20 18:45:00,
2013-07-20 14:05:00,80.0,64.0,29.96,NW,312,2.0,4.0,58,0.00,,,0.00,,2013-07-20 19:05:00,
2013-07-20 14:14:00,81.0,64.0,29.95,NNE,32,1.0,4.0,56,0.00,,,0.00,,2013-07-20 19:14:00,
2013-07-20 14:34:00,79.0,65.0,29.95,NNW,333,1.0,5.0,62,0.00,,,0.00,,2013-07-20 19:34:00,
2013-07-20 14:43:00,80.0,63.0,29.95,NW,309,3.0,7.0,57,0.00,,,0.00,,2013-07-20 19:43:00,
2013-07-20 15:06:00,82.0,65.0,29.94,NNW,339,0.0,6.0,56,0.00,,,0.00,,2013-07-20 20:06:00,
2013-07-20 15:14:00,81.0,63.0,29.94,NNW,347,5.0,5.0,55,0.00,,,0.00,,2013-07-20 20:14:00,
2013-07-20 15:33:00,81.0,63.0,29.94,NNW,348,1.0,4.0,55,0.00,,,0.00,,2013-07-20 20:33:00,
2013-07-20 15:45:00,82.0,64.0,29.93,NNW,347,0.0,4.0,54,0.00,,,0.00,,2013-07-20 20:45:00,
2013-07-20 16:04:00,82.0,64.0,29.94,NE,38,0.0,2.0,55,0.00,,,0.00,,2013-07-20 21:04:00,
2013-07-20 16:14:00,81.0,65.0,29.94,NE,38,0.0,2.0,59,0.00,,,0.00,,2013-07-20 21:14:00,
2013-07-20 16:33:00,78.0,67.0,29.95,West,279,3.0,4.0,69,0.00,,,0.00,,2013-07-20 21:33:00,
2013-07-20 16:44:00,78.0,69.0,29.95,West,279,0.0,4.0,74,0.01,,,0.01,,2013-07-20 21:44:00,
2013-07-20 17:47:00,73.0,68.0,29.94,ESE,122,0.0,2.0,83,0.03,,,0.04,,2013-07-20 22:47:00,
2013-07-20 18:04:00,73.0,67.0,29.94,ESE,122,0.0,3.0,82,0.01,,,0.04,,2013-07-20 23:04:00,
2013-07-20 18:16:00,74.0,68.0,29.94,NE,47,0.0,3.0,83,0.01,,,0.04,,2013-07-20 23:16:00,
2013-07-20 18:36:00,75.0,67.0,29.94,East,90,0.0,3.0,76,0.01,,,0.04,,2013-07-20 23:36:00,
2013-07-20 18:44:00,75.0,67.0,29.95,ESE,108,0.0,3.0,76,0.00,,,0.04,,2013-07-20 23:44:00,
2013-07-20 19:06:00,76.0,67.0,29.95,East,86,0.0,2.0,73,0.00,,,0.04,,2013-07-21 00:06:00,
2013-07-20 19:16:00,76.0,66.0,29.95,ENE,76,0.0,2.0,72,0.00,,,0.04,,2013-07-21 00:16:00,
2013-07-20 19:43:00,74.0,66.0,29.96,SE,138,3.0,7.0,77,0.00,,,0.04,,2013-07-21 00:43:00,
2013-07-20 19:55:00,73.0,66.0,29.96,SE,133,3.0,7.0,78,0.00,,,0.04,,2013-07-21 00:55:00,
2013-07-20 20:06:00,72.0,65.0,29.97,SSW,194,2.0,7.0,79,0.00,,,0.04,,2013-07-21 01:06:00,
2013-07-20 20:12:00,72.0,65.0,29.97,SE,127,2.0,5.0,79,0.00,,,0.04,,2013-07-21 01:12:00,
2013-07-20 20:36:00,70.0,64.0,29.98,ESE,115,2.0,7.0,80,0.00,,,0.04,,2013-07-21 01:36:00,
2013-07-20 21:05:00,69.0,63.0,29.99,SE,138,0.0,2.0,82,0.00,,,0.04,,2013-07-21 02:05:00,
2013-07-20 21:16:00,69.0,63.0,29.99,SSE,155,0.0,3.0,80,0.00,,,0.04,,2013-07-21 02:16:00,
2013-07-20 21:26:00,68.0,62.0,30.00,SSE,155,0.0,2.0,80,0.00,,,0.04,,2013-07-21 02:26:00,
2013-07-20 21:36:00,68.0,61.0,30.01,SSE,155,1.0,1.0,79,0.00,,,0.04,,2013-07-21 02:36:00,
2013-07-20 21:43:00,68.0,62.0,30.01,SE,141,0.0,3.0,82,0.00,,,0.04,,2013-07-21 02:43:00,
2013-07-20 21:54:00,68.0,62.0,30.02,SE,141,0.0,2.0,81,0.00,,,0.04,,2013-07-21 02:54:00,
2013-07-20 22:04:00,68.0,62.0,30.02,SE,133,4.0,4.0,82,0.00,,,0.04,,2013-07-21 03:04:00,
2013-07-20 22:14:00,67.0,61.0,30.02,SE,126,0.0,4.0,82,0.00,,,0.04,,2013-07-21 03:14:00,
2013-07-20 22:25:00,67.0,62.0,30.02,ESE,113,0.0,3.0,83,0.00,,,0.04,,2013-07-21 03:25:00,
2013-07-20 22:35:00,66.0,61.0,30.00,ESE,113,0.0,2.0,83,0.00,,,0.04,,2013-07-21 03:35:00,
2013-07-20 22:44:00,66.0,60.0,29.99,ESE,113,1.0,3.0,82,0.00,,,0.04,,2013-07-21 03:44:00,
2013-07-20 22:55:00,66.0,60.0,30.00,SE,146,2.0,4.0,80,0.00,,,0.04,,2013-07-21 03:55:00,
2013-07-20 23:01:00,66.0,59.0,30.01,SE,137,1.0,4.0,78,0.00,,,0.04,,2013-07-21 04:01:00,
2013-07-20 23:11:00,65.0,58.0,30.01,SE,128,2.0,4.0,78,0.00,,,0.04,,2013-07-21 04:11:00,
2013-07-20 23:32:00,65.0,59.0,30.01,SE,128,1.0,3.0,81,0.00,,,0.04,,2013-07-21 04:32:00,
2013-07-20 23:43:00,64.0,58.0,30.01,SE,128,0.0,4.0,82,0.00,,,0.04,,2013-07-21 04:43:00,